Time;durP1;ratioP1;P1;durP2;ratioP2;P2;SDS_P1;SDS_P2;PMS_P1;PMS_P2;Temp;Humidity;BMP_temperature;BMP_pressure;BME280_temperature;BME280_humidity;BME280_pressure;Samples;Min_cycle;Max_cycle;Signal;HPM_P1;HPM_P2
2023/02/10 00:01:57;;;;;;;2.45;2.25;;;;;;;-1.93;54.81;102084.91;4387411;32;33973;-87
2023/02/10 00:04:25;;;;;;;0.35;0.35;;;;;;;-1.95;54.59;102096.00;4388244;32;33831;-88
2023/02/10 00:06:53;;;;;;;2.65;2.20;;;;;;;-2.03;54.70;102100.87;4388666;32;34058;-87
2023/02/10 00:09:21;;;;;;;2.20;2.12;;;;;;;-1.90;54.23;102098.00;4400946;32;32892;-87
2023/02/10 00:11:59;;;;;;;0.10;0.10;;;;;;;-1.88;53.88;102104.13;4388549;32;33823;-87
2023/02/10 00:14:29;;;;;;;1.55;1.50;;;;;;;-1.91;53.95;102098.78;4403134;32;32255;-87
2023/02/10 00:16:57;;;;;;;1.12;1.10;;;;;;;-2.07;54.06;102096.38;4387250;32;33971;-87
2023/02/10 00:19:27;;;;;;;0.82;0.62;;;;;;;-2.27;54.93;102104.94;4398689;32;33979;-87
2023/02/10 00:21:55;;;;;;;0.62;0.62;;;;;;;-2.26;54.88;102098.94;4399374;32;33806;-85
2023/02/10 00:24:23;;;;;;;1.90;1.55;;;;;;;-2.36;55.15;102106.31;4388496;32;33538;-85
2023/02/10 00:26:51;;;;;;;1.70;1.62;;;;;;;-2.35;55.47;102105.47;4403046;32;33887;-85
2023/02/10 00:29:18;;;;;;;2.65;2.45;;;;;;;-2.30;54.97;102099.62;4416247;32;33037;-86
2023/02/10 00:31:46;;;;;;;0.70;0.70;;;;;;;-2.14;54.62;102104.66;4388698;32;32663;-86
2023/02/10 00:34:16;;;;;;;3.70;3.40;;;;;;;-2.02;53.99;102104.34;4404382;32;33612;-86
2023/02/10 00:36:45;;;;;;;1.08;1.08;;;;;;;-2.18;54.39;102113.12;4387730;32;32885;-86
2023/02/10 00:39:16;;;;;;;0.95;0.77;;;;;;;-2.29;54.75;102101.37;4393433;32;31888;-86
2023/02/10 00:41:43;;;;;;;0.52;0.52;;;;;;;-2.44;55.52;102109.34;4389032;32;34711;-86
2023/02/10 00:44:11;;;;;;;1.55;1.45;;;;;;;-2.30;54.93;102104.81;4402437;32;33838;-86
2023/02/10 00:46:39;;;;;;;1.12;0.98;;;;;;;-2.25;54.56;102105.88;4385644;32;32667;-87
2023/02/10 00:49:10;;;;;;;0.55;0.55;;;;;;;-2.21;54.31;102100.03;4403211;32;32553;-86
2023/02/10 00:51:37;;;;;;;2.20;1.92;;;;;;;-2.43;54.99;102101.66;4393563;32;33056;-87
2023/02/10 00:54:05;;;;;;;5.18;3.28;;;;;;;-2.20;54.41;102099.22;4399980;32;33627;-86
2023/02/10 00:56:33;;;;;;;1.48;1.45;;;;;;;-2.30;54.35;102102.22;4401747;32;33728;-87
2023/02/10 00:59:01;;;;;;;1.10;1.10;;;;;;;-2.29;54.20;102098.81;4405712;32;33372;-87
2023/02/10 01:01:28;;;;;;;5.93;1.10;;;;;;;-2.34;54.46;102096.00;4389151;32;32720;-86
2023/02/10 01:03:56;;;;;;;0.73;0.73;;;;;;;-2.12;53.81;102096.16;4386895;32;34760;-86
2023/02/10 01:06:27;;;;;;;5.85;2.17;;;;;;;-2.01;53.26;102093.16;4414127;32;34556;-86
2023/02/10 01:08:55;;;;;;;0.32;0.32;;;;;;;-2.46;54.80;102098.94;4387152;32;33349;-85
2023/02/10 01:11:23;;;;;;;0.20;0.20;;;;;;;-2.52;55.35;102090.87;4393362;32;33864;-86
2023/02/10 01:13:51;;;;;;;2.17;1.83;;;;;;;-2.48;55.08;102086.72;4418239;32;33260;-87
2023/02/10 01:16:20;;;;;;;1.80;1.65;;;;;;;-2.53;54.80;102083.06;4411427;32;33957;-87
2023/02/10 01:18:48;;;;;;;1.25;1.25;;;;;;;-2.44;54.43;102088.66;4389224;32;35087;-87
2023/02/10 01:21:18;;;;;;;0.93;0.93;;;;;;;-2.50;54.58;102073.75;4386936;32;33262;-86
2023/02/10 01:23:47;;;;;;;0.88;0.88;;;;;;;-2.38;54.29;102074.28;4407481;32;33141;-86
2023/02/10 01:26:15;;;;;;;0.88;0.88;;;;;;;-2.54;54.96;102071.81;4394632;32;33063;-87
2023/02/10 01:28:44;;;;;;;7.05;2.60;;;;;;;-2.59;55.07;102068.13;4400365;32;34160;-86
2023/02/10 01:31:14;;;;;;;2.17;1.98;;;;;;;-2.63;55.47;102071.41;4392794;32;32950;-86
2023/02/10 01:33:42;;;;;;;1.00;1.00;;;;;;;-2.59;55.01;102070.72;4389771;32;33680;-86
2023/02/10 01:36:16;;;;;;;2.05;1.75;;;;;;;-2.68;55.64;102073.78;4386962;32;33962;-86
2023/02/10 01:38:45;;;;;;;0.65;0.65;;;;;;;-2.67;55.36;102067.78;4406415;32;32416;-87
2023/02/10 01:41:16;;;;;;;0.20;0.20;;;;;;;-2.69;55.51;102076.28;4393262;32;33830;-86
2023/02/10 01:44:06;;;;;;;4.10;3.77;;;;;;;-2.55;54.81;102075.22;4397106;32;33832;-87
2023/02/10 01:46:46;;;;;;;1.42;1.40;;;;;;;-2.69;54.90;102076.28;4410573;32;34234;-89
2023/02/10 01:49:18;;;;;;;0.40;0.40;;;;;;;-2.68;54.82;102078.06;4406951;32;33116;-88
2023/02/10 01:52:04;;;;;;;0.10;0.10;;;;;;;-2.59;54.43;102073.31;4398317;32;32749;-90
2023/02/10 01:54:41;;;;;;;1.80;1.70;;;;;;;-2.73;54.23;102075.25;4391878;32;33302;-90
2023/02/10 01:57:13;;;;;;;5.87;3.92;;;;;;;-2.73;54.44;102070.09;4389184;32;32722;-89
2023/02/10 01:59:41;;;;;;;0.00;0.00;;;;;;;-2.92;55.31;102067.47;4399733;32;32723;-89
2023/02/10 02:02:12;;;;;;;1.55;1.45;;;;;;;-3.09;55.71;102076.97;4388191;32;33797;-89
2023/02/10 02:04:45;;;;;;;3.03;2.83;;;;;;;-2.75;54.84;102065.66;4404972;32;33524;-89
2023/02/10 02:07:13;;;;;;;8.40;4.78;;;;;;;-2.76;54.59;102063.87;4399547;32;34357;-89
2023/02/10 02:09:41;;;;;;;2.25;2.08;;;;;;;-2.75;54.39;102065.66;4399105;32;32944;-87
2023/02/10 02:12:30;;;;;;;0.45;0.37;;;;;;;-2.84;54.22;102061.84;4403531;32;33915;-87
2023/02/10 02:15:08;;;;;;;0.55;0.55;;;;;;;-2.70;54.24;102065.06;4385439;32;34038;-87
2023/02/10 02:17:52;;;;;;;2.12;1.92;;;;;;;-2.75;54.15;102063.06;4404396;32;32852;-86
2023/02/10 02:20:43;;;;;;;0.30;0.30;;;;;;;-2.75;54.43;102065.66;4401296;32;32300;-86
2023/02/10 02:23:30;;;;;;;0.52;0.52;;;;;;;-2.96;55.38;102071.59;4418437;32;33032;-86
2023/02/10 02:26:33;;;;;;;0.30;0.30;;;;;;;-3.14;55.88;102070.72;4404683;32;34006;-86
2023/02/10 02:29:50;;;;;;;0.40;0.40;;;;;;;-3.26;56.83;102070.13;4400176;32;33581;-87
2023/02/10 02:32:18;;;;;;;0.17;0.17;;;;;;;-3.24;56.96;102073.66;4353244;32;32997;-88
2023/02/10 02:34:53;;;;;;;4.72;3.12;;;;;;;-2.97;56.03;102079.28;4400516;32;32824;-87
2023/02/10 02:37:45;;;;;;;0.30;0.30;;;;;;;-2.91;55.26;102070.09;4405082;32;33925;-88
2023/02/10 02:40:15;;;;;;;1.20;1.10;;;;;;;-3.15;55.52;102064.66;4383836;32;34366;-87
2023/02/10 02:42:42;;;;;;;;;;;;;;;-3.17;55.83;102065.41;4389862;32;33066;-87
2023/02/10 02:45:11;;;;;;;;;;;;;;;-3.14;55.60;102060.37;4394584;32;33476;-87
2023/02/10 02:47:58;;;;;;;;;;;;;;;-3.10;55.65;102059.72;4399799;32;33531;-87
2023/02/10 02:50:45;;;;;;;;;;;;;;;-2.79;54.32;102053.41;4412986;32;34315;-87
2023/02/10 02:53:31;;;;;;;;;;;;;;;-2.99;55.14;102063.72;4408405;32;33296;-87
2023/02/10 02:56:00;;;;;;;;;;;;;;;-3.32;55.91;102062.97;4400304;32;32988;-88
2023/02/10 02:58:31;;;;;;;;;;;;;;;-3.37;55.67;102055.00;4415553;32;33599;-88
2023/02/10 03:01:02;;;;;;;;;;;;;;;-3.26;55.59;102055.50;4416337;32;33295;-87
2023/02/10 03:03:33;;;;;;;;;;;;;;;-3.09;54.76;102061.47;4412820;32;33724;-87
2023/02/10 03:06:01;;;;;;;;;;;;;;;-3.27;55.31;102058.91;4395617;32;32708;-88
2023/02/10 03:08:29;;;;;;;;;;;;;;;-3.16;55.05;102068.06;4404973;32;33753;-86
2023/02/10 03:10:57;;;;;;;;;;;;;;;-3.20;55.20;102063.56;4395547;32;33254;-86
2023/02/10 03:13:24;;;;;;;;;;;;;;;-3.09;55.01;102071.81;4407542;32;31888;-85
2023/02/10 03:15:51;;;;;;;;;;;;;;;-3.33;55.56;102068.03;4405864;32;32615;-86
2023/02/10 03:18:19;;;;;;;;;;;;;;;-3.45;56.02;102071.81;4406730;32;34143;-86
2023/02/10 03:20:46;;;;;;;;;;;;;;;-3.26;55.52;102070.13;4395704;32;33097;-87
2023/02/10 03:23:14;;;;;;;;;;;;;;;-3.20;55.10;102065.25;4412904;32;32955;-88
2023/02/10 03:25:44;;;;;;;;;;;;;;;-3.23;54.96;102066.00;4403573;32;32853;-87
2023/02/10 03:28:11;;;;;;;;;;;;;;;-3.35;55.26;102061.13;4407170;32;33942;-88
2023/02/10 03:30:46;;;;;;;;;;;;;;;-3.27;54.79;102064.09;4407866;32;34241;-89
2023/02/10 03:33:14;;;;;;;;;;;;;;;-3.38;55.39;102066.12;4388542;32;32251;-89
2023/02/10 03:35:42;;;;;;;;;;;;;;;-3.41;55.95;102058.25;4395149;32;33299;-89
2023/02/10 03:38:10;;;;;;;;;;;;;;;-3.34;55.60;102067.16;4412505;32;34878;-89
2023/02/10 03:40:38;;;;;;;;;;;;;;;-3.36;55.69;102068.81;4393966;32;33856;-89
2023/02/10 03:43:06;;;;;;;;;;;;;;;-3.24;55.29;102068.50;4392720;32;32107;-89
2023/02/10 03:45:33;;;;;;;;;;;;;;;-3.25;55.10;102061.56;4390805;32;33500;-89
2023/02/10 03:48:02;;;;;;;;;;;;;;;-3.30;55.11;102058.75;4419592;32;33920;-90
2023/02/10 03:50:30;;;;;;;;;;;;;;;-3.26;54.93;102055.50;4399420;32;33734;-90
2023/02/10 03:52:57;;;;;;;;;;;;;;;-3.24;54.68;102060.75;4422774;32;32098;-90
2023/02/10 03:55:26;;;;;;;;;;;;;;;-3.40;55.28;102052.25;4409481;32;32754;-90
2023/02/10 03:57:53;;;;;;;;;;;;;;;-3.37;55.64;102048.91;4421886;32;34115;-90
2023/02/10 04:00:20;;;;;;;;;;;;;;;-3.47;55.98;102046.72;4408486;32;32699;-89
2023/02/10 04:02:49;;;;;;;;;;;;;;;-3.44;55.95;102047.75;4409696;32;32031;-89
2023/02/10 04:05:16;;;;;;;;;;;;;;;-3.35;55.70;102040.44;4423127;32;33380;-87
2023/02/10 04:07:43;;;;;;;;;;;;;;;-3.34;55.63;102036.16;4409799;32;33334;-87
2023/02/10 04:10:11;;;;;;;;;;;;;;;-3.32;55.27;102033.66;4410322;32;32889;-88
2023/02/10 04:12:38;;;;;;;;;;;;;;;-3.20;54.89;102022.22;4422622;32;33248;-88
2023/02/10 04:15:06;;;;;;;;;;;;;;;-3.35;55.04;102029.22;4421034;32;34061;-88
2023/02/10 04:17:34;;;;;;;;;;;;;;;-3.35;54.97;102026.66;4422280;32;34419;-87
2023/02/10 04:20:02;;;;;;;;;;;;;;;-3.44;55.26;102034.84;4422301;32;34186;-88
2023/02/10 04:22:29;;;;;;;;;;;;;;;-3.52;55.56;102033.56;4415618;32;33215;-89
2023/02/10 04:24:57;;;;;;;;;;;;;;;-3.45;55.75;102027.03;4422930;32;33071;-89
2023/02/10 04:27:24;;;;;;;;;;;;;;;-3.53;55.50;102033.50;4408970;32;33086;-89
2023/02/10 04:29:52;;;;;;;;;;;;;;;-3.32;54.85;102023.31;4421605;32;33303;-88
2023/02/10 04:32:19;;;;;;;;;;;;;;;-3.52;55.56;102036.16;4423153;32;32533;-89
2023/02/10 04:34:47;;;;;;;;;;;;;;;-3.36;55.34;102032.63;4421542;32;33306;-89
2023/02/10 04:37:14;;;;;;;;;;;;;;;-3.31;55.09;102040.59;4407041;32;34555;-89
2023/02/10 04:39:44;;;;;;;;;;;;;;;-3.40;54.99;102039.34;4409874;32;32766;-89
2023/02/10 04:42:11;;;;;;;;;;;;;;;-3.26;54.43;102044.28;4422248;32;33407;-87
2023/02/10 04:44:39;;;;;;;;;;;;;;;-3.67;55.38;102053.47;4421542;32;32580;-88
2023/02/10 04:47:07;;;;;;;;;;;;;;;-3.57;55.47;102058.28;4421932;32;35160;-88
2023/02/10 04:49:34;;;;;;;;;;;;;;;-3.59;55.44;102052.16;4416574;32;33999;-87
2023/02/10 04:52:02;;;;;;;;;;;;;;;-3.57;55.26;102047.94;4417892;32;34008;-88
2023/02/10 04:54:29;;;;;;;;;;;;;;;-3.59;55.14;102059.03;4429074;32;33077;-88
2023/02/10 04:56:57;;;;;;;;;;;;;;;-3.65;55.74;102059.63;4416114;32;32879;-88
2023/02/10 04:59:24;;;;;;;;;;;;;;;-3.61;55.74;102065.00;4420007;32;33065;-88
2023/02/10 05:01:52;;;;;;;;;;;;;;;-3.65;55.54;102075.13;4416329;32;31915;-88
2023/02/10 05:04:20;;;;;;;;;;;;;;;-3.58;55.32;102077.16;4415543;32;34116;-88
2023/02/10 05:06:47;;;;;;;;;;;;;;;-3.55;55.09;102077.34;4414974;32;33187;-88
2023/02/10 05:09:15;;;;;;;;;;;;;;;-3.51;54.78;102073.19;4418013;32;34264;-88
2023/02/10 05:11:43;;;;;;;;;;;;;;;-3.59;55.07;102080.56;4432172;32;33376;-88
2023/02/10 05:14:10;;;;;;;;;;;;;;;-3.64;55.07;102080.34;4414564;32;33373;-88
2023/02/10 05:16:38;;;;;;;;;;;;;;;-3.69;55.29;102083.50;4431895;32;34563;-88
2023/02/10 05:19:05;;;;;;;;;;;;;;;-3.58;55.07;102079.75;4428883;32;33404;-88
2023/02/10 05:21:33;;;;;;;;;;;;;;;-3.59;54.99;102079.69;4429870;32;33292;-88
2023/02/10 05:24:01;;;;;;;;;;;;;;;-3.53;54.82;102086.03;4415829;32;33744;-88
2023/02/10 05:26:28;;;;;;;;;;;;;;;-3.73;55.92;102087.63;4427011;32;34098;-88
2023/02/10 05:28:56;;;;;;;;;;;;;;;-3.62;55.14;102083.00;4424923;32;34190;-87
2023/02/10 05:31:23;;;;;;;;;;;;;;;-3.49;54.89;102082.81;4416098;32;33509;-86
2023/02/10 05:33:53;;;;;;;;;;;;;;;-3.41;54.63;102089.25;4424551;32;34460;-87
2023/02/10 05:36:21;;;;;;;;;;;;;;;-3.59;55.28;102087.44;4428062;32;32941;-88
2023/02/10 05:41:34;;;;;;;;;;;;;;;-3.68;55.14;102090.44;4416085;32;32529;-88
2023/02/10 05:44:03;;;;;;;;;;;;;;;-3.73;55.45;102089.31;4417143;32;33842;-88
2023/02/10 05:46:30;;;;;;;;;;;;;;;-3.62;55.05;102090.72;4416509;32;34249;-88
2023/02/10 05:48:58;;;;;;;;;;;;;;;-3.62;55.30;102101.06;4427956;32;33294;-88
2023/02/10 05:51:31;;;;;;;;;;;;;;;-3.65;55.97;102098.34;4428798;32;32128;-87
2023/02/10 05:53:58;;;;;;;;;;;;;;;-3.25;54.73;102102.91;4405113;32;31212;-89
2023/02/10 05:56:26;;;;;;;;;;;;;;;-3.46;55.45;102107.91;4383321;32;33016;-89
2023/02/10 05:58:59;;;;;;;;;;;;;;;-3.48;55.42;102109.50;4415794;32;33368;-88
2023/02/10 06:01:27;;;;;;;;;;;;;;;-3.59;55.58;102106.41;4408980;32;32377;-89
2023/02/10 06:03:55;;;;;;;;;;;;;;;-3.70;55.79;102102.41;4419669;32;33058;-90
2023/02/10 06:06:22;;;;;;;;;;;;;;;-3.63;55.52;102089.84;4413576;32;33389;-87
2023/02/10 06:08:49;;;;;;;;;;;;;;;-3.45;54.95;102087.31;4417274;32;33933;-87
2023/02/10 06:11:17;;;;;;;;;;;;;;;-3.51;55.41;102099.94;4423083;32;32415;-88
2023/02/10 06:13:44;;;;;;;;;;;;;;;-3.70;56.06;102103.28;4429297;32;33050;-88
2023/02/10 06:16:12;;;;;;;;;;;;;;;-3.81;56.92;102104.41;4417649;32;34032;-87
2023/02/10 06:18:40;;;;;;;;;;;;;;;-3.73;56.33;102097.06;4429345;32;33321;-87
2023/02/10 06:21:08;;;;;;;;;;;;;;;-3.69;55.96;102086.97;4430147;32;30630;-87
2023/02/10 06:23:35;;;;;;;;;;;;;;;-3.49;55.55;102089.66;4432834;32;34167;-86
2023/02/10 06:26:04;;;;;;;;;;;;;;;-3.74;55.86;102100.47;4430280;32;33215;-86
2023/02/10 06:28:31;;;;;;;;;;;;;;;-3.59;56.02;102101.22;4406256;32;34369;-87
2023/02/10 06:30:59;;;;;;;;;;;;;;;-3.62;56.42;102095.91;4416767;32;32101;-87
2023/02/10 06:33:27;;;;;;;;;;;;;;;-3.49;56.27;102100.87;4432356;32;32964;-88
2023/02/10 06:35:54;;;;;;;;;;;;;;;-3.52;56.33;102105.88;4415407;32;33499;-88
2023/02/10 06:38:22;;;;;;;;;;;;;;;-3.47;56.11;102114.75;4428051;32;34210;-87
2023/02/10 06:40:50;;;;;;;;;;;;;;;-3.08;55.46;102120.12;4407633;32;32360;-88
2023/02/10 06:43:17;;;;;;;;;;;;;;;-3.02;55.32;102132.47;4419458;32;34141;-88
2023/02/10 06:45:44;;;;;;;;;;;;;;;-3.37;56.57;102140.25;4420737;32;32793;-88
2023/02/10 06:48:12;;;;;;;;;;;;;;;-3.25;56.58;102139.06;4431030;32;33256;-88
2023/02/10 06:50:40;;;;;;;;;;;;;;;-3.30;56.89;102156.03;4428142;32;32287;-88
2023/02/10 06:53:07;;;;;;;;;;;;;;;-3.26;57.22;102151.09;4420106;32;34850;-88
2023/02/10 06:55:35;;;;;;;;;;;;;;;-3.25;57.66;102159.75;4402348;32;34359;-87
2023/02/10 06:58:03;;;;;;;;;;;;;;;-3.37;58.00;102160.91;4407334;32;34729;-87
2023/02/10 07:00:33;;;;;;;;;;;;;;;-3.39;58.57;102148.72;4408607;32;31894;-90
2023/02/10 07:03:01;;;;;;;;;;;;;;;-3.20;58.54;102142.78;4388827;32;33058;-91
2023/02/10 07:05:28;;;;;;;;;;;;;;;-2.98;58.63;102130.09;4384734;32;33457;-85
2023/02/10 07:07:58;;;;;;;;;;;;;;;-2.69;58.24;102133.19;4388374;32;33384;-90
2023/02/10 07:10:26;;;;;;;;;;;;;;;-2.68;58.48;102137.53;4388784;32;32182;-85
2023/02/10 07:12:53;;;;;;;;;;;;;;;-2.42;58.14;102129.31;4416300;32;34841;-85
2023/02/10 07:15:23;;;;;;;2.20;1.92;;;;;;;-2.24;57.82;102131.84;4391040;32;33231;-85
2023/02/10 07:17:51;;;;;;;0.50;0.50;;;;;;;-2.23;58.09;102136.22;4402315;32;32801;-85
2023/02/10 07:20:19;;;;;;;0.80;0.80;;;;;;;-1.73;56.93;102134.09;4402976;32;32523;-85
2023/02/10 07:22:47;;;;;;;2.17;2.05;;;;;;;-1.34;56.36;102138.37;4393786;32;32964;-90
2023/02/10 07:25:15;;;;;;;0.88;0.88;;;;;;;-1.40;56.98;102138.13;4402352;32;32857;-87
2023/02/10 07:27:43;;;;;;;0.88;0.85;;;;;;;-1.37;57.27;102139.97;4407119;32;32790;-87
2023/02/10 07:30:15;;;;;;;2.22;2.00;;;;;;;-1.33;57.47;102137.59;4404922;32;33215;-87
2023/02/10 07:32:44;;;;;;;1.48;1.45;;;;;;;-1.29;57.61;102129.09;4383771;32;32769;-87
2023/02/10 07:35:12;;;;;;;2.62;2.40;;;;;;;-1.00;57.45;102131.09;4404739;32;34288;-86
2023/02/10 07:37:40;;;;;;;7.50;2.65;;;;;;;-1.12;57.84;102127.19;4405532;32;33975;-87
2023/02/10 07:40:08;;;;;;;1.42;1.35;;;;;;;-1.02;57.91;102130.16;4397113;32;32858;-87
2023/02/10 07:42:36;;;;;;;1.02;0.98;;;;;;;-0.94;57.73;102121.00;4404736;32;33849;-87
2023/02/10 07:45:04;;;;;;;1.62;1.52;;;;;;;-0.75;57.35;102120.03;4393351;32;32989;-87
2023/02/10 07:47:33;;;;;;;2.85;2.08;;;;;;;-0.73;57.37;102115.78;4415199;32;33229;-87
2023/02/10 07:50:00;;;;;;;0.43;0.30;;;;;;;-0.83;57.34;102118.00;4403860;32;33227;-87
2023/02/10 07:52:28;;;;;;;2.45;2.30;;;;;;;-0.57;57.11;102113.84;4414182;32;34300;-86
2023/02/10 07:54:56;;;;;;;6.65;6.03;;;;;;;-0.28;56.42;102112.34;4418265;32;33454;-86
2023/02/10 07:57:24;;;;;;;2.35;2.15;;;;;;;-0.27;56.20;102114.13;4427141;32;31636;-86
2023/02/10 07:59:52;;;;;;;1.25;1.25;;;;;;;0.37;55.28;102125.06;4428297;32;33059;-86
2023/02/10 08:02:20;;;;;;;2.95;2.70;;;;;;;0.57;55.13;102118.84;4404011;32;33390;-87
2023/02/10 08:04:48;;;;;;;4.80;3.50;;;;;;;0.25;55.55;102120.31;4416820;32;34643;-86
2023/02/10 08:07:15;;;;;;;1.15;1.15;;;;;;;0.51;55.55;102126.41;4416063;32;32193;-86
2023/02/10 08:09:43;;;;;;;1.77;1.67;;;;;;;0.87;54.87;102123.31;4401744;32;33922;-86
2023/02/10 08:12:11;;;;;;;0.73;0.73;;;;;;;0.99;54.60;102134.09;4416884;32;34507;-86
2023/02/10 08:14:38;;;;;;;1.35;1.35;;;;;;;0.83;54.80;102134.44;4415258;32;33930;-86
2023/02/10 08:17:06;;;;;;;0.82;0.82;;;;;;;1.24;53.96;102138.37;4416808;32;33515;-86
2023/02/10 08:19:38;;;;;;;1.23;1.23;;;;;;;1.16;53.25;102135.53;4404265;32;33783;-86
2023/02/10 08:22:06;;;;;;;0.57;0.57;;;;;;;1.36;53.10;102130.06;4414622;32;33885;-86
2023/02/10 08:24:33;;;;;;;2.47;2.30;;;;;;;1.53;52.45;102134.97;4415687;32;33373;-86
2023/02/10 08:27:04;;;;;;;3.03;2.83;;;;;;;1.83;52.13;102131.50;4393643;32;33343;-86
2023/02/10 08:29:32;;;;;;;3.60;2.87;;;;;;;1.71;52.83;102137.25;4412854;32;32531;-86
2023/02/10 08:31:59;;;;;;;1.35;1.30;;;;;;;2.03;51.65;102124.25;4414035;32;32839;-86
2023/02/10 08:34:28;;;;;;;6.75;1.77;;;;;;;1.14;53.29;102138.91;4422221;32;34518;-86
2023/02/10 08:36:55;;;;;;;5.00;3.08;;;;;;;1.39;52.99;102140.59;4404832;32;33841;-86
2023/02/10 08:39:23;;;;;;;2.80;2.20;;;;;;;1.81;52.10;102140.12;4416051;32;34049;-86
2023/02/10 08:41:51;;;;;;;1.08;1.08;;;;;;;2.04;51.65;102126.00;4403633;32;32974;-86
2023/02/10 08:44:19;;;;;;;1.58;1.48;;;;;;;1.85;52.05;102135.03;4401288;32;33328;-86
2023/02/10 08:46:47;;;;;;;3.92;3.50;;;;;;;2.18;51.54;102132.50;4390156;32;32946;-86
2023/02/10 08:49:15;;;;;;;2.17;2.08;;;;;;;2.08;51.35;102134.81;4424189;32;34043;-83
2023/02/10 08:51:43;;;;;;;1.08;1.08;;;;;;;1.99;52.42;102135.41;4426432;32;33770;-86
2023/02/10 08:54:11;;;;;;;2.10;1.62;;;;;;;2.16;51.19;102128.97;4397554;32;33849;-86
2023/02/10 08:56:39;;;;;;;2.37;2.28;;;;;;;2.49;50.23;102133.34;4376528;32;34281;-85
2023/02/10 08:59:06;;;;;;;3.83;1.00;;;;;;;2.69;49.58;102128.63;4378627;32;32284;-85
2023/02/10 09:01:34;;;;;;;2.97;1.98;;;;;;;3.43;48.69;102126.09;4399016;32;33797;-86
2023/02/10 09:04:03;;;;;;;3.00;1.62;;;;;;;3.19;47.67;102122.06;4387915;32;33881;-85
2023/02/10 09:06:38;;;;;;;0.00;0.00;;;;;;;3.68;46.29;102119.69;4386427;32;32899;-85
2023/02/10 09:09:06;;;;;;;0.62;0.62;;;;;;;4.02;45.69;102119.53;4414304;32;33292;-85
2023/02/10 09:11:34;;;;;;;0.35;0.35;;;;;;;3.89;46.35;102114.87;4414201;32;32791;-85
2023/02/10 09:14:02;;;;;;;1.05;1.05;;;;;;;4.15;45.56;102120.66;4394555;32;33818;-85
2023/02/10 09:16:30;;;;;;;0.68;0.68;;;;;;;4.56;44.99;102110.09;4417558;32;33786;-85
2023/02/10 09:18:57;;;;;;;0.95;0.95;;;;;;;4.76;44.10;102119.16;4373558;32;33904;-85
2023/02/10 09:21:25;;;;;;;2.03;1.62;;;;;;;4.46;44.54;102110.75;4400579;32;33339;-85
2023/02/10 09:24:08;;;;;;;0.40;0.40;;;;;;;3.99;44.84;102110.75;4373762;32;184984;-85
2023/02/10 09:26:36;;;;;;;0.75;0.75;;;;;;;4.00;45.12;102116.00;4401400;32;34245;-85
2023/02/10 09:29:03;;;;;;;1.55;0.85;;;;;;;4.48;43.86;102122.16;4377622;32;32865;-85
2023/02/10 09:31:33;;;;;;;7.28;2.42;;;;;;;4.75;42.31;102116.53;4387790;32;31971;-85
2023/02/10 09:34:01;;;;;;;1.75;1.65;;;;;;;5.00;43.42;102123.06;4391440;32;34677;-85
2023/02/10 09:36:29;;;;;;;0.90;0.90;;;;;;;4.98;42.03;102120.38;4376344;32;32637;-85
2023/02/10 09:38:57;;;;;;;0.93;0.93;;;;;;;4.75;42.47;102116.53;4413924;32;33398;-85
2023/02/10 09:41:33;;;;;;;2.22;2.03;;;;;;;4.95;42.25;102114.25;4401940;32;33837;-84
2023/02/10 09:44:11;;;;;;;1.30;1.30;;;;;;;5.18;42.33;102110.25;4405585;32;33169;-85
2023/02/10 09:47:05;;;;;;;3.20;2.67;;;;;;;5.69;41.06;102105.72;4389736;32;32458;-85
2023/02/10 09:49:46;;;;;;;1.87;1.77;;;;;;;5.81;40.86;102112.00;4412699;32;32534;-84
2023/02/10 09:52:32;;;;;;;1.02;0.60;;;;;;;6.08;40.21;102110.63;4414045;32;34251;-85
2023/02/10 09:54:59;;;;;;;0.62;0.60;;;;;;;6.11;39.18;102121.13;4406387;32;33329;-85
2023/02/10 09:57:38;;;;;;;0.62;0.62;;;;;;;6.44;39.18;102115.38;4385885;32;33833;-84
2023/02/10 10:00:30;;;;;;;2.20;2.05;;;;;;;6.42;38.66;102125.00;4397716;32;32984;-85
2023/02/10 10:03:07;;;;;;;1.08;1.08;;;;;;;6.29;38.80;102116.09;4411685;32;33698;-85
2023/02/10 10:05:44;;;;;;;2.37;2.17;;;;;;;6.25;38.42;102109.06;4386655;32;33371;-85
2023/02/10 10:08:19;;;;;;;2.30;2.20;;;;;;;5.96;38.62;102100.84;4413262;32;35779;-85
2023/02/10 10:10:50;;;;;;;5.00;1.27;;;;;;;6.00;39.49;102104.41;4394190;32;32588;-87
2023/02/10 10:13:25;;;;;;;3.03;2.15;;;;;;;6.35;39.73;102095.16;4401781;32;32908;-84
2023/02/10 10:16:23;;;;;;;0.65;0.65;;;;;;;6.70;39.29;102093.78;4402423;32;33774;-84
2023/02/10 10:19:03;;;;;;;0.32;0.32;;;;;;;6.77;38.40;102085.94;4382860;32;31682;-85
2023/02/10 10:21:47;;;;;;;2.65;2.10;;;;;;;6.86;38.02;102078.13;4409641;32;32750;-85
2023/02/10 10:24:39;;;;;;;0.85;0.73;;;;;;;7.27;36.53;102081.94;4386477;32;32835;-85
2023/02/10 10:27:15;;;;;;;1.45;1.35;;;;;;;6.96;37.17;102094.84;4376990;32;35423;-84
2023/02/10 10:29:51;;;;;;;0.65;0.65;;;;;;;6.67;37.55;102097.22;4399837;32;33831;-84
2023/02/10 10:32:32;;;;;;;1.52;0.95;;;;;;;7.12;37.66;102088.84;4402481;32;30563;-84
2023/02/10 10:35:01;;;;;;;0.85;0.85;;;;;;;7.16;37.74;102092.38;4410138;32;33869;-84
2023/02/10 10:37:29;;;;;;;0.88;0.88;;;;;;;6.99;36.93;102083.50;4387446;32;33298;-85
2023/02/10 10:39:59;;;;;;;0.32;0.32;;;;;;;6.81;38.23;102098.22;4408847;32;33731;-84
2023/02/10 10:42:41;;;;;;;0.77;0.60;;;;;;;6.88;38.48;102102.69;4390236;32;31910;-84
2023/02/10 10:45:16;;;;;;;2.62;2.17;;;;;;;7.46;37.29;102093.44;4411608;32;34027;-84
2023/02/10 10:47:48;;;;;;;0.60;0.60;;;;;;;7.55;37.13;102075.06;4400851;32;33022;-85
2023/02/10 10:50:18;;;;;;;2.40;2.10;;;;;;;6.90;37.33;102074.69;4402914;32;32625;-85
2023/02/10 10:52:51;;;;;;;0.95;0.95;;;;;;;7.18;36.29;102069.63;4399469;32;32950;-85
2023/02/10 10:55:25;;;;;;;1.83;1.73;;;;;;;7.27;36.12;102074.94;4404737;32;33816;-85
2023/02/10 10:57:54;;;;;;;2.40;2.20;;;;;;;7.41;35.92;102067.13;4403885;32;33956;-84
2023/02/10 11:00:24;;;;;;;1.08;1.08;;;;;;;7.50;36.49;102064.56;4402778;32;32215;-84
2023/02/10 11:03:03;;;;;;;1.98;1.80;;;;;;;8.09;34.68;102048.13;4391194;32;32618;-86
2023/02/10 11:05:34;;;;;;;0.88;0.88;;;;;;;7.55;35.72;102052.31;4405733;32;33323;-87
2023/02/10 11:08:03;;;;;;;0.35;0.35;;;;;;;7.72;36.33;102047.13;4402991;32;32832;-84
2023/02/10 11:10:50;;;;;;;1.23;1.12;;;;;;;7.75;35.13;102041.00;4402335;32;33629;-84
2023/02/10 11:13:27;;;;;;;2.75;1.35;;;;;;;8.28;34.70;102021.84;4402927;32;32694;-84
2023/02/10 11:16:02;;;;;;;2.15;1.98;;;;;;;7.85;34.96;102025.25;4391308;32;34349;-84
2023/02/10 11:18:30;;;;;;;0.85;0.85;;;;;;;7.79;34.03;102025.25;4391720;32;33420;-84
2023/02/10 11:21:01;;;;;;;2.90;2.50;;;;;;;8.18;33.53;102020.94;4404170;32;33788;-84
2023/02/10 11:23:29;;;;;;;0.82;0.82;;;;;;;7.94;33.81;102024.41;4401625;32;33419;-84
2023/02/10 11:26:09;;;;;;;1.70;1.60;;;;;;;8.16;33.61;102020.03;4390909;32;32816;-84
2023/02/10 11:28:36;;;;;;;10.27;0.57;;;;;;;8.12;33.13;102021.81;4401463;32;32892;-84
2023/02/10 11:31:19;;;;;;;1.65;1.55;;;;;;;8.62;32.62;102023.63;4404050;32;32904;-84
2023/02/10 11:34:38;;;;;;;1.42;1.33;;;;;;;8.41;34.39;102024.50;4401494;32;32956;-87
2023/02/10 11:37:17;;;;;;;0.98;0.95;;;;;;;9.31;32.15;102014.75;4344739;32;33344;-86
2023/02/10 11:39:46;;;;;;;0.68;0.68;;;;;;;9.09;32.60;102014.78;4342519;32;34310;-86
2023/02/10 11:42:20;;;;;;;2.65;2.30;;;;;;;8.79;33.58;102021.00;4384250;32;33762;-85
2023/02/10 11:45:01;;;;;;;1.87;1.77;;;;;;;8.94;33.75;102017.47;4405620;32;34227;-85
2023/02/10 11:47:31;;;;;;;4.57;0.88;;;;;;;9.42;33.18;102008.53;4401781;32;33404;-85
2023/02/10 11:49:59;;;;;;;0.28;0.28;;;;;;;9.03;32.89;102004.28;4401970;32;33231;-86
2023/02/10 11:52:33;;;;;;;0.90;0.60;;;;;;;8.89;33.35;101996.41;4390510;32;33975;-85
2023/02/10 11:55:01;;;;;;;2.28;1.60;;;;;;;9.03;32.09;101998.12;4410479;32;32627;-85
2023/02/10 12:00:59;;;;;;;1.75;1.60;;;;;;;8.53;31.28;101985.87;4403289;32;34603;-86
2023/02/10 12:03:35;;;;;;;2.30;2.15;;;;;;;8.62;32.65;101980.62;4398280;32;34011;-85
2023/02/10 12:06:22;;;;;;;2.85;2.47;;;;;;;8.55;34.27;101974.50;4398632;32;33815;-85
2023/02/10 12:09:22;;;;;;;0.82;0.82;;;;;;;8.56;34.13;101972.72;4397110;32;33710;-86
2023/02/10 12:12:00;;;;;;;1.15;1.08;;;;;;;8.14;32.26;101969.19;4389719;32;33233;-84
2023/02/10 12:14:52;;;;;;;0.90;0.80;;;;;;;8.43;32.14;101963.94;4411723;32;34352;-86
2023/02/10 12:17:24;;;;;;;3.90;1.20;;;;;;;8.95;31.66;101943.69;4411558;32;34066;-85
2023/02/10 12:20:11;;;;;;;3.25;1.60;;;;;;;8.42;32.30;101947.28;4390428;32;32729;-87